Latest Weather Observations for Cerberus

IDV60801

Issued at 5:52 pm EDT Monday 17 January 2022 (issued every 10 minutes, with the page automatically refreshed every 10 minutes)

About weather observations | Map of weather stations | Latest weather observations for VIC | Other Formats
Station Details ID: 086361 Name: CERBERUS Lat: -38.36 Lon: 145.18 Height: 12.69 m
Data from the previous 72 hours. | See also: Recent months at Cerberus
Date/Time
EDT
Temp
°C
App
Temp
°C
Dew
Point
°C
Rel
Hum
%
Delta-T
°C
Wind Press
QNH
hPa
Press
MSL
hPa
Rain since
9am
mm
Dir  Spd
km/h
Gust
km/h
Spd
kts
Gust
kts
17/05:30pm 20.9 17.9 12.6 59 4.7 SSW 20 30 11 16 1011.7 1011.7 0.0
17/05:00pm 20.3 17.3 11.8 58 4.7 SSW 19 28 10 15 1011.6 1011.6 0.0
17/04:30pm 20.4 17.7 13.4 64 4.0 SSW 20 32 11 17 1011.4 1011.4 0.0
17/04:00pm 20.5 17.1 12.5 60 4.5 SSW 22 35 12 19 1011.3 1011.3 0.0
17/03:30pm 20.1 17.5 13.8 67 3.6 SSW 20 32 11 17 1011.2 1011.2 0.0
17/03:00pm 20.3 17.3 13.7 66 3.8 SW 22 33 12 18 1011.0 1011.0 0.0
17/02:30pm 21.8 19.2 12.1 54 5.5 SSW 17 30 9 16 1010.9 1010.9 0.0
17/02:00pm 21.7 19.9 13.3 59 4.8 SSW 15 26 8 14 1011.0 1011.0 0.0
17/01:30pm 21.4 18.6 12.5 57 5.0 SSW 19 28 10 15 1011.2 1011.2 0.0
17/01:00pm 20.1 17.2 12.3 61 4.4 SSW 19 32 10 17 1011.2 1011.2 0.0
17/12:30pm 20.9 19.4 14.1 65 3.9 SSW 15 24 8 13 1011.4 1011.4 0.0
17/12:00pm 20.8 19.3 14.2 66 3.8 SSW 15 19 8 10 1011.5 1011.5 0.0
17/11:30am 19.0 16.3 13.4 70 3.2 SW 20 28 11 15 1011.6 1011.6 0.0
17/11:00am 19.2 17.1 13.6 70 3.2 SW 17 24 9 13 1011.2 1011.2 0.0
17/10:30am 18.4 16.9 14.1 76 2.5 SSW 15 24 8 13 1010.7 1010.7 0.0
17/10:00am 17.9 16.8 14.2 79 2.1 SW 13 19 7 10 1010.6 1010.6 0.0
17/09:30am 18.5 17.1 13.4 72 2.9 SW 13 19 7 10 1010.5 1010.5 0.0
17/09:00am 18.9 17.2 13.5 71 3.1 SW 15 24 8 13 1010.3 1010.3 0.0
17/08:30am 18.8 17.4 13.4 71 3.1 SW 13 24 7 13 1010.6 1010.6 0.0
17/08:00am 18.5 16.4 13.6 73 2.8 SW 17 26 9 14 1010.1 1010.1 0.0
17/07:30am 18.3 16.0 14.0 76 2.5 WSW 19 33 10 18 1009.6 1009.6 0.0
17/07:00am 18.4 17.1 14.9 80 2.0 SW 15 24 8 13 1008.1 1008.1 0.0
17/06:30am 18.5 17.4 15.2 81 1.9 WSW 15 26 8 14 1007.9 1007.9 0.0
17/06:00am 18.6 15.9 15.5 82 1.8 WSW 24 35 13 19 1007.0 1007.0 0.0
17/05:30am 18.6 15.6 15.8 84 1.7 SW 26 37 14 20 1006.5 1006.5 0.0
17/05:00am 18.7 16.6 16.1 85 1.6 SW 22 37 12 20 1005.8 1005.8 0.0
17/04:30am 18.8 17.0 16.0 84 1.7 WSW 20 32 11 17 1005.6 1005.6 0.0
17/04:00am 19.7 19.1 16.7 83 1.8 SW 15 28 8 15 1005.3 1005.3 0.0
17/03:30am 19.6 20.5 16.6 83 1.8 WSW 7 9 4 5 1004.4 1004.4 0.0
17/03:00am 19.7 21.8 16.3 81 2.0 CALM 0 0 0 0 1004.1 1004.1 0.0
17/02:30am 20.2 22.0 16.4 79 2.3 NNE 2 6 1 3 1004.1 1004.1 0.0
17/02:00am 20.7 22.5 16.5 77 2.5 NNE 2 4 1 2 1004.1 1004.1 0.0
17/01:30am 21.2 22.5 17.0 77 2.6 NNE 6 13 3 7 1004.0 1004.0 0.0
17/01:00am 21.6 22.4 17.2 76 2.7 NE 9 19 5 10 1004.2 1004.2 0.0
17/12:30am 21.8 23.1 17.6 77 2.6 NE 7 17 4 9 1004.1 1004.1 0.0
17/12:00am 21.7 23.1 17.9 79 2.4 NE 7 15 4 8 1004.1 1004.1 0.0
 
Date/Time
EDT
Temp
°C
App
Temp
°C
Dew
Point
°C
Rel
Hum
%
Delta-T
°C
Wind Press
QNH
hPa
Press
MSL
hPa
Rain since
9am
mm
Dir  Spd
km/h
Gust
km/h
Spd
kts
Gust
kts
16/11:30pm 17.2 18.8 14.8 86 1.4 CALM 0 2 0 1 1004.3 1004.3 0.0
16/11:00pm 17.9 19.2 15.2 84 1.6 SE 2 4 1 2 1004.6 1004.6 0.0
16/10:30pm 18.0 18.8 14.9 82 1.8 SE 4 4 2 2 1005.2 1005.2 0.0
16/10:00pm 18.4 20.1 15.3 82 1.8 CALM 0 0 0 0 1005.4 1005.4 0.0
16/09:30pm 18.7 19.8 15.6 82 1.8 SE 4 6 2 3 1005.4 1005.4 0.0
16/09:00pm 19.4 20.5 15.5 78 2.3 SE 4 6 2 3 1005.6 1005.6 0.0
16/08:30pm 20.8 21.6 15.8 73 3.0 SE 6 7 3 4 1005.5 1005.5 0.0
16/08:00pm 22.6 23.2 15.4 64 4.3 SSE 6 11 3 6 1005.3 1005.3 0.0
16/07:30pm 22.8 23.1 15.1 62 4.6 SSE 7 15 4 8 1005.3 1005.3 0.0
16/07:00pm 23.2 23.8 15.8 63 4.5 SSE 7 11 4 6 1005.7 1005.7 0.0
16/06:30pm 23.7 23.7 15.2 59 5.1 S 9 17 5 9 1006.0 1006.0 0.0
16/06:00pm 23.8 23.7 15.0 57 5.3 SE 9 17 5 9 1006.1 1006.1 0.0
16/05:30pm 24.4 24.0 15.1 56 5.6 SSE 11 17 6 9 1006.4 1006.4 0.0
16/05:00pm 25.2 24.7 14.9 52 6.2 SSE 11 17 6 9 1006.6 1006.6 0.0
16/04:30pm 25.0 24.4 14.5 52 6.2 SSE 11 19 6 10 1006.8 1006.8 0.0
16/04:00pm 25.4 25.0 15.1 53 6.2 S 11 17 6 9 1007.1 1007.1 0.0
16/03:30pm 25.1 23.8 14.9 53 6.1 SSW 15 19 8 10 1007.2 1007.2 0.0
16/03:00pm 25.7 25.2 13.9 48 7.0 SE 9 17 5 9 1007.2 1007.2 0.0
16/02:30pm 25.3 25.1 13.5 48 6.9 SE 7 13 4 7 1007.4 1007.4 0.0
16/02:00pm 24.7 24.8 13.9 51 6.4 ESE 6 13 3 7 1007.7 1007.7 0.0
16/01:30pm 24.2 23.9 13.4 51 6.3 NE 7 13 4 7 1008.1 1008.1 0.0
16/01:00pm 23.1 22.6 13.8 55 5.4 ENE 9 15 5 8 1008.5 1008.5 0.0
16/12:30pm 22.4 21.9 13.7 58 5.1 E 9 13 5 7 1008.9 1008.9 0.0
16/12:00pm 21.5 20.4 13.2 59 4.8 E 11 19 6 10 1009.2 1009.2 0.0
16/11:30am 21.4 20.3 13.1 59 4.7 E 11 17 6 9 1009.4 1009.4 0.0
16/11:00am 21.4 20.9 12.8 58 4.9 E 7 13 4 7 1009.4 1009.4 0.0
16/10:30am 20.5 20.5 12.5 60 4.5 ESE 4 9 2 5 1009.3 1009.3 0.0
16/10:00am 19.7 19.2 12.5 63 4.0 ESE 7 11 4 6 1009.4 1009.4 0.0
16/09:30am 18.9 18.4 11.9 64 3.9 NE 6 7 3 4 1009.6 1009.6 0.0
16/09:00am 19.0 19.0 12.3 65 3.7 ENE 4 7 2 4 1009.4 1009.4 0.0
16/08:30am 18.7 19.2 12.9 69 3.3 NNE 2 2 1 1 1009.3 1009.3 0.0
16/08:00am 16.0 17.0 13.3 84 1.5 CALM 0 0 0 0 1009.2 1009.2 0.0
16/07:30am 14.3 15.2 12.9 91 0.8 CALM 0 0 0 0 1008.7 1008.7 0.0
16/07:00am 12.6 13.0 11.2 91 0.7 CALM 0 2 0 1 1008.6 1008.6 0.0
16/06:30am 12.0 11.8 10.4 90 0.8 WNW 2 6 1 3 1008.8 1008.8 0.0
16/06:00am 12.8 13.2 11.4 91 0.7 CALM 0 0 0 0 1008.4 1008.4 0.0
16/05:30am 12.3 12.3 11.0 92 0.7 W 2 2 1 1 1008.5 1008.5 0.0
16/05:00am 12.1 12.3 10.7 91 0.7 CALM 0 0 0 0 1008.3 1008.3 0.0
16/04:30am 11.8 11.6 10.4 91 0.7 W 2 4 1 2 1008.1 1008.1 0.0
16/04:00am 11.9 12.1 10.5 91 0.7 CALM 0 0 0 0 1007.8 1007.8 0.0
16/03:30am 11.7 11.4 10.1 90 0.8 W 2 4 1 2 1007.8 1007.8 0.0
16/03:00am 11.4 10.6 9.7 89 0.9 W 4 6 2 3 1007.9 1007.9 0.0
16/02:30am 12.0 11.3 10.2 89 0.9 W 4 6 2 3 1008.0 1008.0 0.0
16/02:00am 12.6 12.1 10.8 89 0.9 W 4 6 2 3 1008.2 1008.2 0.0
16/01:30am 13.2 12.9 11.3 88 1.0 W 4 4 2 2 1008.6 1008.6 0.0
16/01:00am 13.4 13.1 11.5 88 1.0 W 4 6 2 3 1008.7 1008.7 0.0
16/12:30am 13.6 13.2 11.1 85 1.3 W 4 4 2 2 1008.6 1008.6 0.0
16/12:00am 14.8 15.0 11.8 82 1.6 W 2 4 1 2 1008.6 1008.6 0.0
 
Date/Time
EDT
Temp
°C
App
Temp
°C
Dew
Point
°C
Rel
Hum
%
Delta-T
°C
Wind Press
QNH
hPa
Press
MSL
hPa
Rain since
9am
mm
Dir  Spd
km/h
Gust
km/h
Spd
kts
Gust
kts
15/11:30pm 15.4 14.9 12.0 80 1.8 W 6 9 3 5 1008.6 1008.6 0.0
15/11:00pm 16.0 15.4 12.2 78 2.1 WSW 7 11 4 6 1008.7 1008.7 0.0
15/10:30pm 16.8 15.6 12.7 77 2.3 SW 11 15 6 8 1008.3 1008.3 0.0
15/10:00pm 17.0 16.0 13.5 80 2.0 WSW 11 17 6 9 1008.3 1008.3 0.0
15/09:30pm 17.2 16.3 13.7 80 2.0 SW 11 19 6 10 1008.3 1008.3 0.0
15/09:00pm 17.4 15.9 13.1 76 2.4 SW 13 19 7 10 1008.5 1008.5 0.0
15/08:30pm 17.8 16.8 13.3 75 2.5 SW 11 19 6 10 1007.8 1007.8 0.0
15/08:00pm 18.4 16.3 13.5 73 2.8 SW 17 26 9 14 1006.8 1006.8 0.0
15/07:30pm 18.4 16.1 14.1 76 2.5 SW 19 28 10 15 1006.6 1006.6 0.0
15/07:22pm 18.4 16.1 14.1 76 2.5 SW 19 28 10 15 1006.8 1006.8 0.0
15/07:10pm 18.5 16.5 14.0 75 2.6 SW 17 28 9 15 1009.0 1009.0 0.0
15/07:00pm 18.7 16.9 14.4 76 2.5 SW 17 28 9 15 1007.0 1007.0 0.0
15/06:30pm 19.5 17.3 14.3 72 3.0 SW 19 30 10 16 1006.7 1006.7 0.0
15/06:00pm 19.9 17.8 15.1 74 2.8 SW 20 33 11 18 1006.5 1006.5 0.0
15/05:30pm 20.3 18.1 14.9 71 3.2 SW 20 33 11 18 1006.3 1006.3 0.0
15/05:00pm 20.0 16.9 14.6 71 3.2 SW 24 35 13 19 1006.2 1006.2 0.0
15/04:30pm 19.6 16.7 15.0 75 2.7 SSW 24 37 13 20 1006.3 1006.3 0.0
15/04:00pm 20.5 16.9 15.3 72 3.1 SSW 28 43 15 23 1006.0 1006.0 0.0
15/03:30pm 20.3 17.1 15.3 73 3.0 SSW 26 33 14 18 1005.8 1005.8 0.0
15/03:00pm 21.0 18.4 16.0 73 3.0 SW 24 37 13 20 1005.7 1005.7 0.0
15/02:30pm 20.2 17.0 15.2 73 2.9 SSW 26 35 14 19 1005.6 1005.6 0.0
15/02:00pm 21.2 19.3 15.3 69 3.5 SSW 19 26 10 14 1005.3 1005.3 0.0
15/01:30pm 21.6 20.5 17.2 76 2.7 SSW 19 26 10 14 1005.3 1005.3 0.0
15/01:00pm 20.1 18.2 15.7 76 2.6 SSW 20 33 11 18 1005.5 1005.5 0.0
15/12:30pm 19.8 18.5 15.9 78 2.3 SSW 17 28 9 15 1005.2 1005.2 0.0
15/12:00pm 19.1 17.4 15.8 81 2.0 SW 19 24 10 13 1005.3 1005.3 0.0
15/11:30am 18.7 17.0 15.8 83 1.7 SW 19 28 10 15 1004.9 1004.9 0.0
15/11:00am 19.4 18.6 16.1 81 2.0 SSW 15 24 8 13 1004.6 1004.6 0.0
15/10:30am 20.0 19.6 16.2 79 2.3 SW 13 20 7 11 1004.3 1004.3 0.0
15/10:00am 19.3 20.1 15.8 80 2.1 WNW 6 7 3 4 1004.2 1004.2 0.0
15/09:30am 18.8 19.5 15.7 82 1.8 NW 6 9 3 5 1004.1 1004.1 0.0
15/09:00am 18.6 19.2 15.3 81 1.9 WNW 6 9 3 5 1003.9 1003.9 6.8
15/08:30am 18.4 19.0 15.3 82 1.8 WNW 6 7 3 4 1003.5 1003.5 6.8
15/08:00am 18.3 18.7 15.2 82 1.8 W 7 13 4 7 1003.2 1003.2 6.8
15/07:30am 18.0 18.3 15.1 83 1.7 W 7 15 4 8 1002.7 1002.7 6.8
15/07:00am 18.1 18.8 15.5 85 1.5 W 6 9 3 5 1002.6 1002.6 6.8
15/06:30am 18.0 18.6 15.4 85 1.5 WSW 6 7 3 4 1002.5 1002.5 6.8
15/06:00am 17.9 18.5 15.3 85 1.5 WSW 6 7 3 4 1002.4 1002.4 6.8
15/05:30am 18.0 18.1 15.4 85 1.5 WSW 9 17 5 9 1002.4 1002.4 6.8
15/05:00am 17.9 18.0 15.5 86 1.4 W 9 15 5 8 1001.9 1001.9 6.8
15/04:30am 18.1 18.1 16.3 89 1.1 WSW 11 17 6 9 1001.8 1001.8 6.8
15/04:00am 18.7 19.4 17.0 90 1.0 W 9 15 5 8 1001.5 1001.5 6.8
15/03:30am 18.7 18.7 17.2 91 0.9 WSW 13 19 7 10 1001.0 1001.0 6.8
15/03:00am 18.9 19.2 17.0 89 1.2 WSW 11 22 6 12 1000.7 1000.7 6.8
15/02:30am 19.5 18.9 17.5 88 1.2 WSW 17 24 9 13 1000.6 1000.6 6.8
15/02:00am 19.9 21.0 17.9 88 1.2 WNW 9 13 5 7 1000.4 1000.4 6.8
15/01:30am 21.1 22.6 19.0 88 1.3 WNW 9 13 5 7 1000.2 1000.2 6.8
15/01:00am 20.4 22.6 18.3 88 1.3 NNW 4 7 2 4 1000.1 1000.1 6.8
15/12:30am 20.8 22.9 18.9 89 1.2 N 6 9 3 5 1000.0 1000.0 6.8
15/12:00am 21.3 22.5 19.0 87 1.5 NNE 11 19 6 10 1000.3 1000.3 6.8
 
Date/Time
EDT
Temp
°C
App
Temp
°C
Dew
Point
°C
Rel
Hum
%
Delta-T
°C
Wind Press
QNH
hPa
Press
MSL
hPa
Rain since
9am
mm
Dir  Spd
km/h
Gust
km/h
Spd
kts
Gust
kts
14/11:30pm 22.0 22.6 18.6 81 2.1 NNE 13 22 7 12 1000.4 1000.4 3.0
14/11:00pm 22.0 23.0 18.6 81 2.1 NNE 11 19 6 10 1000.0 1000.0 3.0
14/10:30pm 22.2 23.1 18.4 79 2.4 NE 11 22 6 12 999.9 999.9 3.0
14/10:00pm 22.6 23.5 18.4 77 2.6 NE 11 19 6 10 1000.3 1000.3 3.0
14/09:30pm 23.1 23.4 18.0 73 3.2 NE 13 24 7 13 1000.4 1000.4 3.0
14/09:00pm 23.6 24.5 18.3 72 3.3 NE 11 20 6 11 1000.7 1000.7 3.0
14/08:30pm 24.1 25.3 19.0 73 3.2 NE 11 17 6 9 1000.3 1000.3 3.0
14/08:00pm 24.9 25.1 18.6 68 4.0 NE 15 24 8 13 1000.3 1000.3 3.0
14/07:30pm 26.0 26.0 18.2 62 4.9 NE 15 24 8 13 1000.2 1000.2 3.0
14/07:00pm 26.2 26.4 19.3 65 4.5 ENE 17 22 9 12 1000.0 1000.0 3.0
14/06:30pm 27.0 27.6 19.4 63 4.9 ENE 15 26 8 14 1000.3 1000.3 3.0
14/06:00pm 28.0 29.2 19.0 58 5.8 ENE 11 20 6 11 1000.3 1000.3 3.0

Other formats

Comma delimited format used in spreadsheet applications
http://www.bom.gov.au/fwo/IDV60801/IDV60801.94898.axf

JavaScript Object Notation format (JSON) in row-major order
http://www.bom.gov.au/fwo/IDV60801/IDV60801.94898.json

Data quality

Most of these data are generated automatically and are frequently updated. Quality checks on data are not normally performed. It is possible for incorrect values to appear. Refer to information at About Latest Weather Observations and please check the disclaimer before using these data.